Time;durP1;ratioP1;P1;durP2;ratioP2;P2;SDS_P1;SDS_P2;PMS_P1;PMS_P2;Temp;Humidity;BMP_temperature;BMP_pressure;BME280_temperature;BME280_humidity;BME280_pressure;Samples;Min_cycle;Max_cycle;Signal;HPM_P1;HPM_P2
2022/07/26 00:02:21;;;;;;;14.65;5.90;;;18.70;99.90;;;;;;5135582;27;20078;-68
2022/07/26 00:04:54;;;;;;;16.35;5.50;;;18.80;99.90;;;;;;5138183;27;20078;-68
2022/07/26 00:07:19;;;;;;;18.05;6.65;;;18.70;99.90;;;;;;5127670;27;20103;-68
2022/07/26 00:09:45;;;;;;;15.80;6.15;;;18.70;99.90;;;;;;5129315;27;20445;-68
2022/07/26 00:12:11;;;;;;;14.60;5.72;;;18.70;99.90;;;;;;5124504;27;20133;-68
2022/07/26 00:14:36;;;;;;;15.93;6.10;;;18.70;99.90;;;;;;5130598;27;20051;-67
2022/07/26 00:17:03;;;;;;;23.08;6.07;;;18.70;99.90;;;;;;5142815;27;20585;-68
2022/07/26 00:19:29;;;;;;;13.77;5.68;;;18.70;99.90;;;;;;5120433;27;20051;-68
2022/07/26 00:24:39;;;;;;;20.33;6.50;;;18.60;99.90;;;;;;5123984;27;20051;-68
2022/07/26 00:27:05;;;;;;;18.02;6.15;;;18.60;99.90;;;;;;5118850;27;20046;-67
2022/07/26 00:29:31;;;;;;;21.52;5.82;;;18.60;99.90;;;;;;5126227;27;20453;-68
2022/07/26 00:31:56;;;;;;;16.48;6.40;;;18.60;99.90;;;;;;5143593;27;20217;-68
2022/07/26 00:34:23;;;;;;;13.63;5.78;;;18.60;99.90;;;;;;5143817;27;20030;-68
2022/07/26 00:36:49;;;;;;;13.10;5.75;;;18.60;99.90;;;;;;5126521;27;20039;-68
2022/07/26 00:39:14;;;;;;;14.40;5.43;;;18.50;99.90;;;;;;5130442;27;20050;-68
2022/07/26 00:41:40;;;;;;;17.08;6.30;;;18.50;99.90;;;;;;5130218;27;20054;-68
2022/07/26 00:44:06;;;;;;;21.85;7.72;;;18.50;99.90;;;;;;5115580;27;20035;-68
2022/07/26 00:46:31;;;;;;;17.90;5.75;;;18.60;99.90;;;;;;5147264;27;20035;-68
2022/07/26 00:48:57;;;;;;;20.55;6.63;;;18.50;99.90;;;;;;5148118;27;20070;-68
2022/07/26 00:51:23;;;;;;;23.27;6.43;;;18.50;99.90;;;;;;5146230;27;20053;-69
2022/07/26 00:53:48;;;;;;;14.75;5.47;;;18.50;99.90;;;;;;5148694;27;20051;-69
2022/07/26 00:56:16;;;;;;;15.50;6.68;;;18.50;99.90;;;;;;5132204;27;20095;-69
2022/07/26 00:58:42;;;;;;;18.97;6.60;;;18.40;99.90;;;;;;5139333;27;20811;-69
2022/07/26 01:01:09;;;;;;;15.15;6.35;;;18.40;99.90;;;;;;5120673;27;20726;-69
2022/07/26 01:03:34;;;;;;;19.95;6.20;;;18.30;99.90;;;;;;5141067;27;20039;-70
2022/07/26 01:06:01;;;;;;;18.35;6.55;;;18.30;99.90;;;;;;5130622;27;20049;-69
2022/07/26 01:08:27;;;;;;;19.30;5.80;;;18.30;99.90;;;;;;5121646;27;20030;-69
2022/07/26 01:10:53;;;;;;;21.65;6.15;;;18.30;99.90;;;;;;5105420;27;20047;-69
2022/07/26 01:13:20;;;;;;;22.48;7.60;;;18.20;99.90;;;;;;5122379;27;20047;-69
2022/07/26 01:15:46;;;;;;;11.30;6.00;;;18.10;99.90;;;;;;5123503;27;20502;-69
2022/07/26 01:18:12;;;;;;;18.35;7.20;;;18.10;99.90;;;;;;5135926;27;20034;-69
2022/07/26 01:20:38;;;;;;;19.48;7.35;;;18.10;99.90;;;;;;5101812;27;20479;-69
2022/07/26 01:23:06;;;;;;;21.75;6.75;;;18.10;99.90;;;;;;5141275;27;20567;-68
2022/07/26 01:25:34;;;;;;;25.75;6.07;;;18.00;99.90;;;;;;5129096;27;20126;-69
2022/07/26 01:27:59;;;;;;;;;;;18.00;99.90;;;;;;5110661;28;20551;-69
2022/07/26 01:30:25;;;;;;;10.23;5.70;;;17.90;99.90;;;;;;5136182;27;19972;-69
2022/07/26 01:32:51;;;;;;;17.58;6.97;;;17.90;99.90;;;;;;5133555;27;20145;-68
2022/07/26 01:35:17;;;;;;;34.63;9.38;;;17.90;99.90;;;;;;5142132;27;20042;-69
2022/07/26 01:37:42;;;;;;;21.10;7.00;;;18.00;99.90;;;;;;5144061;27;20061;-69
2022/07/26 01:40:09;;;;;;;19.80;7.65;;;17.90;99.90;;;;;;5127824;27;20071;-69
2022/07/26 01:42:35;;;;;;;26.65;8.45;;;17.90;99.90;;;;;;5143274;27;20035;-69
2022/07/26 01:45:01;;;;;;;19.80;7.75;;;17.90;99.90;;;;;;5146716;27;20035;-69
2022/07/26 01:47:26;;;;;;;17.08;6.32;;;17.80;99.90;;;;;;5108989;28;20051;-69
2022/07/26 01:49:52;;;;;;;16.08;7.38;;;17.80;99.90;;;;;;5137615;27;20098;-69
2022/07/26 01:52:18;;;;;;;24.83;7.30;;;17.80;99.90;;;;;;5146505;27;20130;-69
2022/07/26 01:54:44;;;;;;;18.52;7.80;;;17.80;99.90;;;;;;5146987;27;20079;-69
2022/07/26 01:57:09;;;;;;;19.42;6.72;;;17.80;99.90;;;;;;5147150;27;20035;-69
2022/07/26 01:59:35;;;;;;;22.85;8.05;;;17.70;99.90;;;;;;5130318;27;20089;-69
2022/07/26 02:02:01;;;;;;;12.30;6.60;;;17.70;99.90;;;;;;5129586;27;20047;-69
2022/07/26 02:07:10;;;;;;;16.10;6.65;;;17.60;99.90;;;;;;5147550;27;20047;-69
2022/07/26 02:09:36;;;;;;;23.52;8.50;;;17.60;99.90;;;;;;5145714;27;20087;-69
2022/07/26 02:12:02;;;;;;;13.05;7.05;;;17.60;99.90;;;;;;5118986;27;20496;-69
2022/07/26 02:14:28;;;;;;;14.75;6.57;;;17.60;99.90;;;;;;5133134;27;20043;-69
2022/07/26 02:16:58;;;;;;;11.65;6.32;;;17.60;99.90;;;;;;5138330;27;20039;-69
2022/07/26 02:19:25;;;;;;;28.02;8.07;;;17.60;99.90;;;;;;5148436;27;20411;-69
2022/07/26 02:21:51;;;;;;;19.63;6.97;;;17.60;99.90;;;;;;5152211;27;20058;-69
2022/07/26 02:24:17;;;;;;;23.55;8.20;;;17.60;99.90;;;;;;5150453;27;20043;-69
2022/07/26 02:26:42;;;;;;;20.60;8.00;;;17.70;99.90;;;;;;5142020;27;20515;-69
2022/07/26 02:29:08;;;;;;;25.92;8.15;;;17.70;99.90;;;;;;5134485;27;20065;-69
2022/07/26 02:31:34;;;;;;;14.07;7.55;;;17.70;99.90;;;;;;5132596;27;20035;-69
2022/07/26 02:34:00;;;;;;;23.40;7.95;;;17.70;99.90;;;;;;5152540;27;20096;-69
2022/07/26 02:36:26;;;;;;;19.67;7.10;;;17.70;99.90;;;;;;5126080;27;20049;-69
2022/07/26 02:38:52;;;;;;;18.33;7.65;;;17.70;99.90;;;;;;5136727;27;20039;-69
2022/07/26 02:41:18;;;;;;;26.92;7.82;;;17.70;99.90;;;;;;5131752;27;20035;-69
2022/07/26 02:43:43;;;;;;;14.98;7.40;;;17.70;99.90;;;;;;5147042;27;20066;-69
2022/07/26 02:46:09;;;;;;;15.32;6.60;;;17.70;99.90;;;;;;5151496;27;20095;-69
2022/07/26 02:48:35;;;;;;;19.38;7.68;;;17.70;99.90;;;;;;5140728;27;20103;-69
2022/07/26 02:51:01;;;;;;;16.98;6.95;;;17.80;99.90;;;;;;5131639;27;20035;-69
2022/07/26 02:53:27;;;;;;;15.27;6.30;;;17.70;99.90;;;;;;5151313;27;20046;-69
2022/07/26 02:55:52;;;;;;;13.18;6.75;;;17.80;99.90;;;;;;5130851;27;20066;-69
2022/07/26 02:58:21;;;;;;;17.08;6.78;;;17.80;99.90;;;;;;5150926;27;20055;-69
2022/07/26 03:00:47;;;;;;;21.00;7.18;;;17.70;99.90;;;;;;5121069;27;20053;-69
2022/07/26 03:03:13;;;;;;;13.45;6.20;;;17.80;99.90;;;;;;5142635;27;20042;-69
2022/07/26 03:05:39;;;;;;;23.75;7.65;;;17.80;99.90;;;;;;5150476;27;20407;-69
2022/07/26 03:08:05;;;;;;;15.05;6.85;;;17.80;99.90;;;;;;5143393;27;20130;-69
2022/07/26 03:10:32;;;;;;;16.05;7.30;;;17.80;99.90;;;;;;5151776;27;20050;-69
2022/07/26 03:12:58;;;;;;;13.68;7.28;;;17.80;99.90;;;;;;5130547;27;20039;-69
2022/07/26 03:15:23;;;;;;;8.07;5.45;;;17.80;99.90;;;;;;5136232;27;20035;-68
2022/07/26 03:17:49;;;;;;;16.05;6.90;;;17.80;99.90;;;;;;5143155;27;20035;-69
2022/07/26 03:20:15;;;;;;;19.65;7.03;;;17.80;99.90;;;;;;5141397;27;20556;-69
2022/07/26 03:22:41;;;;;;;20.52;8.32;;;17.80;99.90;;;;;;5124630;27;20076;-69
2022/07/26 03:25:07;;;;;;;18.20;7.07;;;17.80;99.90;;;;;;5146320;27;20034;-69
2022/07/26 03:27:33;;;;;;;12.30;5.85;;;17.80;99.90;;;;;;5115122;27;20039;-68
2022/07/26 03:29:59;;;;;;;11.43;6.32;;;17.90;99.90;;;;;;5131512;27;20041;-69
2022/07/26 03:32:25;;;;;;;15.32;5.60;;;17.90;99.90;;;;;;5144428;27;20042;-69
2022/07/26 03:34:51;;;;;;;12.68;6.20;;;17.90;99.90;;;;;;5150798;27;20038;-69
2022/07/26 03:37:17;;;;;;;23.95;7.45;;;17.90;99.90;;;;;;5130113;27;20086;-70
2022/07/26 03:39:43;;;;;;;15.68;6.55;;;17.90;99.90;;;;;;5139432;27;20043;-69
2022/07/26 03:42:09;;;;;;;13.93;5.63;;;17.80;99.90;;;;;;5144380;27;20067;-69
2022/07/26 03:44:35;;;;;;;11.75;4.25;;;17.70;99.90;;;;;;5120751;27;20451;-69
2022/07/26 03:47:01;;;;;;;5.97;3.60;;;17.70;99.90;;;;;;5148109;27;20139;-69
2022/07/26 03:49:26;;;;;;;7.30;4.57;;;17.70;99.90;;;;;;5132767;27;20046;-69
2022/07/26 03:51:54;;;;;;;11.98;4.57;;;17.80;99.90;;;;;;5131356;27;20399;-69
2022/07/26 03:54:20;;;;;;;4.53;4.13;;;17.70;99.90;;;;;;5150329;27;20046;-69
2022/07/26 03:56:45;;;;;;;6.40;4.82;;;17.70;99.90;;;;;;5119231;27;20767;-69
2022/07/26 03:59:11;;;;;;;8.43;4.10;;;17.70;99.90;;;;;;5130099;27;20047;-69
2022/07/26 04:01:40;;;;;;;5.90;3.40;;;17.70;99.90;;;;;;5149470;27;20043;-69
2022/07/26 04:04:08;;;;;;;9.13;4.00;;;17.70;99.90;;;;;;5144947;27;20047;-69
2022/07/26 04:06:35;;;;;;;5.97;3.75;;;17.70;99.90;;;;;;5142614;27;20100;-69
2022/07/26 04:09:00;;;;;;;5.45;3.53;;;17.70;99.90;;;;;;5127277;27;20434;-69
2022/07/26 04:11:27;;;;;;;9.68;4.45;;;17.70;99.90;;;;;;5131311;27;20039;-69
2022/07/26 04:13:53;;;;;;;9.05;4.22;;;17.70;99.90;;;;;;5149911;27;20043;-69
2022/07/26 04:16:19;;;;;;;4.40;3.65;;;17.70;99.90;;;;;;5142627;27;20049;-69
2022/07/26 04:18:44;;;;;;;9.15;4.88;;;17.70;99.90;;;;;;5149620;27;20118;-69
2022/07/26 04:21:10;;;;;;;10.98;4.22;;;17.70;99.90;;;;;;5149565;27;20038;-69
2022/07/26 04:23:36;;;;;;;8.80;4.20;;;17.70;99.90;;;;;;5135701;27;20121;-69
2022/07/26 04:26:01;;;;;;;5.95;3.40;;;17.80;99.90;;;;;;5149644;27;20078;-69
2022/07/26 04:28:27;;;;;;;11.82;4.50;;;17.70;99.90;;;;;;5134655;27;20543;-69
2022/07/26 04:30:54;;;;;;;5.88;3.95;;;17.80;99.90;;;;;;5150245;27;20054;-69
2022/07/26 04:33:20;;;;;;;10.43;4.13;;;17.90;99.90;;;;;;5138619;27;20658;-69
2022/07/26 04:35:45;;;;;;;8.15;4.40;;;18.20;99.90;;;;;;5145709;27;20039;-69
2022/07/26 04:38:11;;;;;;;12.25;4.25;;;18.30;99.90;;;;;;5148410;27;20031;-69
2022/07/26 04:40:37;;;;;;;7.22;4.00;;;18.20;99.90;;;;;;5131584;27;20046;-69
2022/07/26 04:43:03;;;;;;;6.97;4.15;;;18.20;99.90;;;;;;5148724;27;20477;-69
2022/07/26 04:45:29;;;;;;;6.05;3.40;;;18.20;99.90;;;;;;5145135;27;20030;-69
2022/07/26 04:47:55;;;;;;;13.65;3.97;;;18.20;99.90;;;;;;5148203;27;20129;-69
2022/07/26 04:50:22;;;;;;;7.43;4.00;;;18.10;99.90;;;;;;5144641;27;20042;-69
2022/07/26 04:52:49;;;;;;;6.65;4.50;;;18.10;99.90;;;;;;5134846;27;20046;-69
2022/07/26 04:55:15;;;;;;;9.63;3.55;;;18.10;99.90;;;;;;5138877;27;20041;-69
2022/07/26 04:57:41;;;;;;;10.40;3.65;;;18.00;99.90;;;;;;5147636;27;20130;-69
2022/07/26 05:00:10;;;;;;;19.08;3.88;;;18.00;99.90;;;;;;5143556;27;20066;-69
2022/07/26 05:02:35;;;;;;;7.35;3.55;;;18.00;99.90;;;;;;5126729;27;20050;-69
2022/07/26 05:05:01;;;;;;;9.75;3.95;;;18.00;99.90;;;;;;5142347;27;20053;-69
2022/07/26 05:07:27;;;;;;;9.20;3.45;;;17.90;99.90;;;;;;5119520;27;20039;-69
2022/07/26 05:09:52;;;;;;;14.32;3.83;;;18.00;99.90;;;;;;5148166;27;20107;-69
2022/07/26 05:12:18;;;;;;;8.25;4.55;;;18.00;99.90;;;;;;5126775;27;20487;-69
2022/07/26 05:14:44;;;;;;;7.97;4.20;;;18.00;99.90;;;;;;5138756;27;20077;-69
2022/07/26 05:17:10;;;;;;;15.65;3.55;;;18.00;99.90;;;;;;5148923;27;20150;-69
2022/07/26 05:19:40;;;;;;;12.88;3.88;;;18.00;99.90;;;;;;5148808;27;20183;-69
2022/07/26 05:22:05;;;;;;;6.38;3.38;;;18.00;99.90;;;;;;5137215;27;20077;-69
2022/07/26 05:24:31;;;;;;;6.53;3.28;;;18.00;99.90;;;;;;5145039;27;20051;-69
2022/07/26 05:26:57;;;;;;;9.63;4.35;;;18.00;99.90;;;;;;5149306;27;20108;-70
2022/07/26 05:29:22;;;;;;;10.52;3.80;;;18.00;99.90;;;;;;5131325;27;20489;-69
2022/07/26 05:31:49;;;;;;;8.15;3.35;;;18.00;99.90;;;;;;5136898;27;20081;-69
2022/07/26 05:34:14;;;;;;;6.85;3.35;;;18.00;99.90;;;;;;5145649;27;20051;-69
2022/07/26 05:36:40;;;;;;;8.40;2.97;;;17.90;99.90;;;;;;5148440;27;20039;-69
2022/07/26 05:39:05;;;;;;;5.63;2.72;;;17.90;99.90;;;;;;5145800;27;20039;-69
2022/07/26 05:41:31;;;;;;;9.18;2.35;;;17.90;99.90;;;;;;5148433;27;20095;-69
2022/07/26 05:43:57;;;;;;;7.63;3.00;;;17.80;99.90;;;;;;5130190;27;20492;-69
2022/07/26 05:46:23;;;;;;;7.07;2.60;;;17.80;99.90;;;;;;5148404;27;20057;-69
2022/07/26 05:48:48;;;;;;;9.25;2.92;;;17.80;99.90;;;;;;5146541;27;20038;-69
2022/07/26 05:51:14;;;;;;;12.75;2.97;;;17.80;99.90;;;;;;5145697;27;20030;-69
2022/07/26 05:53:40;;;;;;;5.38;2.78;;;17.80;99.90;;;;;;5128663;27;20054;-68
2022/07/26 05:56:06;;;;;;;12.13;3.35;;;17.80;99.90;;;;;;5143954;27;20130;-68
2022/07/26 05:58:31;;;;;;;8.63;2.22;;;17.80;99.90;;;;;;5133821;27;20466;-68
2022/07/26 06:00:57;;;;;;;7.10;3.00;;;17.80;99.90;;;;;;5132385;27;20039;-68
2022/07/26 06:03:23;;;;;;;10.02;2.40;;;17.90;99.90;;;;;;5126438;27;20042;-68
2022/07/26 06:05:50;;;;;;;5.28;2.20;;;17.90;99.90;;;;;;5152344;27;20403;-68
2022/07/26 06:08:16;;;;;;;8.30;1.90;;;17.80;99.90;;;;;;5150782;27;20646;-67
2022/07/26 06:10:42;;;;;;;7.63;2.67;;;17.90;99.90;;;;;;5151637;27;20061;-68
2022/07/26 06:13:07;;;;;;;7.65;1.88;;;17.90;99.90;;;;;;5137760;27;20035;-69
2022/07/26 06:15:33;;;;;;;4.03;1.42;;;17.90;99.90;;;;;;5133685;27;20384;-69
2022/07/26 06:17:58;;;;;;;2.67;1.65;;;17.90;99.90;;;;;;5137880;27;22698;-68
2022/07/26 06:20:24;;;;;;;3.78;1.42;;;17.90;99.90;;;;;;5132913;27;20042;-68
2022/07/26 06:22:51;;;;;;;8.65;1.83;;;18.00;99.90;;;;;;5146997;27;20065;-69
2022/07/26 06:25:17;;;;;;;6.25;1.70;;;18.10;99.90;;;;;;5152293;27;20042;-67
2022/07/26 06:27:42;;;;;;;5.38;1.90;;;18.10;99.90;;;;;;5150033;27;20039;-68
2022/07/26 06:30:09;;;;;;;14.82;2.10;;;18.10;99.90;;;;;;5150856;27;20091;-68
2022/07/26 06:32:34;;;;;;;5.47;1.27;;;18.00;99.90;;;;;;5144475;27;20057;-67
2022/07/26 06:35:00;;;;;;;4.43;1.83;;;17.90;99.90;;;;;;5139965;27;20394;-67
2022/07/26 06:37:26;;;;;;;6.15;2.22;;;17.70;99.90;;;;;;5149822;27;20042;-67
2022/07/26 06:39:52;;;;;;;2.85;1.50;;;17.80;99.90;;;;;;5149547;27;20026;-67
2022/07/26 06:42:17;;;;;;;4.00;1.73;;;17.70;99.90;;;;;;5146532;27;20042;-67
2022/07/26 06:44:43;;;;;;;11.82;2.42;;;17.60;99.90;;;;;;5133738;27;20087;-66
2022/07/26 06:47:09;;;;;;;7.03;2.05;;;17.60;99.90;;;;;;5146619;27;20376;-67
2022/07/26 06:49:34;;;;;;;5.47;2.10;;;17.70;99.90;;;;;;5140189;27;20043;-67
2022/07/26 06:52:00;;;;;;;5.05;1.55;;;17.70;99.90;;;;;;5145869;27;20038;-67
2022/07/26 06:54:25;;;;;;;3.80;1.70;;;17.80;99.90;;;;;;5145059;27;20053;-66
2022/07/26 06:56:51;;;;;;;4.03;2.22;;;17.80;99.90;;;;;;5135886;27;20433;-67
2022/07/26 06:59:17;;;;;;;11.70;2.08;;;17.90;99.90;;;;;;5151148;27;20051;-66
2022/07/26 07:01:42;;;;;;;5.68;1.80;;;17.90;99.90;;;;;;5143935;27;20051;-66
2022/07/26 07:04:08;;;;;;;4.78;1.75;;;18.00;99.90;;;;;;5144671;27;20415;-66
2022/07/26 07:06:34;;;;;;;5.30;1.98;;;18.00;99.90;;;;;;5144016;27;20506;-66
2022/07/26 07:08:59;;;;;;;15.45;4.60;;;18.20;99.90;;;;;;5142448;27;20080;-66
2022/07/26 07:11:25;;;;;;;13.05;2.58;;;18.20;99.90;;;;;;5143091;27;20053;-66
2022/07/26 07:13:51;;;;;;;8.65;2.22;;;18.20;99.90;;;;;;5140874;27;20122;-66
2022/07/26 07:16:16;;;;;;;7.60;1.75;;;18.10;99.90;;;;;;5137770;27;20487;-66
2022/07/26 07:18:42;;;;;;;5.85;1.70;;;18.00;99.90;;;;;;5150463;27;20550;-66
2022/07/26 07:21:08;;;;;;;6.43;1.88;;;18.00;99.90;;;;;;5141667;27;20045;-66
2022/07/26 07:23:33;;;;;;;3.83;1.55;;;17.90;99.90;;;;;;5146283;27;20130;-66
2022/07/26 07:25:59;;;;;;;11.73;1.73;;;17.90;99.90;;;;;;5145983;27;20077;-66
2022/07/26 07:28:25;;;;;;;3.28;1.33;;;17.80;99.90;;;;;;5142877;27;20437;-66
2022/07/26 07:30:51;;;;;;;6.90;1.60;;;17.80;99.90;;;;;;5138658;27;20049;-66
2022/07/26 07:33:17;;;;;;;5.93;1.52;;;17.80;99.90;;;;;;5142789;27;20038;-64
2022/07/26 07:35:42;;;;;;;5.65;1.50;;;17.90;99.90;;;;;;5142962;27;20034;-66
2022/07/26 07:38:08;;;;;;;14.40;2.50;;;18.00;99.90;;;;;;5139256;27;20495;-66
2022/07/26 07:40:34;;;;;;;7.03;1.85;;;17.90;99.90;;;;;;5135618;27;20045;-66
2022/07/26 07:43:01;;;;;;;9.00;1.90;;;18.00;99.90;;;;;;5149735;27;20046;-67
2022/07/26 07:45:27;;;;;;;5.55;1.58;;;18.10;99.90;;;;;;5146711;27;20031;-67
2022/07/26 07:47:55;;;;;;;5.93;1.45;;;18.20;99.90;;;;;;5145123;27;20099;-67
2022/07/26 07:50:20;;;;;;;2.58;1.35;;;18.20;99.90;;;;;;5147073;27;20054;-67
2022/07/26 07:52:46;;;;;;;4.97;2.13;;;18.50;99.90;;;;;;5147271;27;20740;-67
2022/07/26 07:55:12;;;;;;;9.30;2.45;;;18.80;99.90;;;;;;5149179;27;20042;-66
2022/07/26 07:57:37;;;;;;;4.45;1.85;;;18.80;99.90;;;;;;5124842;27;20058;-66
2022/07/26 08:00:05;;;;;;;7.00;2.60;;;19.10;99.90;;;;;;5125645;27;20097;-66
2022/07/26 08:02:31;;;;;;;;;;;19.10;99.90;;;;;;5128227;27;20038;-66
2022/07/26 08:04:56;;;;;;;4.07;1.67;;;19.10;99.90;;;;;;5141292;27;19930;-66
2022/07/26 08:07:22;;;;;;;14.90;1.73;;;19.00;99.90;;;;;;5144146;27;20038;-66
2022/07/26 08:09:48;;;;;;;6.18;1.88;;;19.00;99.90;;;;;;5147494;27;20093;-66
2022/07/26 08:12:13;;;;;;;4.28;1.25;;;19.10;99.90;;;;;;5140726;27;20042;-66
2022/07/26 08:14:39;;;;;;;4.70;2.03;;;19.10;99.90;;;;;;5132877;27;20073;-66
2022/07/26 08:17:05;;;;;;;9.02;1.85;;;19.20;99.90;;;;;;5140022;27;20118;-67
2022/07/26 08:19:30;;;;;;;3.28;1.23;;;19.30;99.90;;;;;;5140368;27;20498;-66
2022/07/26 08:21:56;;;;;;;4.35;1.40;;;19.20;99.90;;;;;;5143141;27;20074;-67
2022/07/26 08:24:22;;;;;;;3.38;1.52;;;19.10;99.90;;;;;;5136098;27;20157;-67
2022/07/26 08:26:50;;;;;;;2.33;1.02;;;19.00;99.90;;;;;;5147371;27;20380;-67
2022/07/26 08:29:16;;;;;;;10.43;1.90;;;19.00;99.90;;;;;;5123050;27;20046;-67
2022/07/26 08:31:41;;;;;;;6.97;1.75;;;19.00;99.90;;;;;;5138155;27;20049;-67
2022/07/26 08:34:07;;;;;;;6.50;1.55;;;19.10;99.90;;;;;;5145060;27;20043;-67
2022/07/26 08:36:32;;;;;;;6.93;1.83;;;19.40;99.90;;;;;;5129526;27;20058;-67
2022/07/26 08:38:59;;;;;;;4.40;1.80;;;19.60;99.90;;;;;;5117370;27;20047;-68
2022/07/26 08:41:25;;;;;;;8.50;1.27;;;19.90;99.90;;;;;;5135684;27;20035;-67
2022/07/26 08:43:51;;;;;;;4.25;1.80;;;20.10;99.90;;;;;;5145121;27;20096;-69
2022/07/26 08:46:16;;;;;;;3.40;1.52;;;20.30;99.90;;;;;;5142782;27;20130;-67
2022/07/26 08:48:42;;;;;;;3.40;1.50;;;20.30;99.90;;;;;;5148412;27;20501;-68
2022/07/26 08:51:09;;;;;;;8.63;2.05;;;20.30;99.90;;;;;;5129327;27;20416;-68
2022/07/26 08:53:39;;;;;;;12.33;1.93;;;20.40;99.90;;;;;;5137275;27;20043;-67
2022/07/26 08:56:04;;;;;;;6.72;1.70;;;20.20;99.90;;;;;;5131824;27;20044;-66
2022/07/26 08:58:39;;;;;;;6.78;2.53;;;19.90;99.90;;;;;;5117295;27;20059;-67
2022/07/26 09:01:12;;;;;;;5.13;1.75;;;19.90;99.90;;;;;;5137516;27;20456;-67
2022/07/26 09:03:39;;;;;;;2.90;1.20;;;19.80;99.90;;;;;;5142592;27;20039;-67
2022/07/26 09:06:19;;;;;;;11.13;2.33;;;19.70;99.90;;;;;;5150145;27;20544;-67
2022/07/26 09:08:47;;;;;;;5.80;1.10;;;19.80;99.90;;;;;;5149889;27;20411;-66
2022/07/26 09:11:32;;;;;;;5.32;1.60;;;19.70;99.90;;;;;;5123738;27;20054;-66
2022/07/26 09:14:01;;;;;;;5.85;1.50;;;19.80;99.90;;;;;;5139615;27;20397;-66
2022/07/26 09:16:28;;;;;;;5.55;1.73;;;19.90;99.90;;;;;;5121145;27;20536;-66
2022/07/26 09:18:55;;;;;;;5.28;1.50;;;19.90;99.90;;;;;;5131444;27;20400;-66
2022/07/26 09:21:31;;;;;;;7.70;1.87;;;19.90;99.90;;;;;;5144552;27;20047;-67
2022/07/26 09:23:58;;;;;;;6.85;2.05;;;19.70;99.90;;;;;;5123222;27;20049;-66
2022/07/26 09:26:24;;;;;;;6.28;1.80;;;19.70;99.90;;;;;;5143769;27;20133;-67
2022/07/26 09:29:07;;;;;;;3.05;1.70;;;19.80;99.90;;;;;;5130854;27;20369;-66
2022/07/26 09:31:34;;;;;;;3.58;1.38;;;19.70;99.90;;;;;;5142737;27;20039;-66
2022/07/26 09:34:00;;;;;;;4.80;1.48;;;19.90;99.90;;;;;;5137532;27;20053;-66
2022/07/26 09:36:27;;;;;;;8.60;1.83;;;20.20;99.90;;;;;;5141242;27;20126;-66
2022/07/26 09:39:01;;;;;;;5.85;2.00;;;20.30;99.90;;;;;;5145112;27;20514;-66
2022/07/26 09:41:32;;;;;;;5.32;1.70;;;20.50;99.90;;;;;;5143082;27;20038;-65
2022/07/26 09:44:04;;;;;;;9.80;1.45;;;20.80;99.90;;;;;;5145291;27;20179;-66
2022/07/26 09:46:33;;;;;;;5.53;2.30;;;20.90;99.90;;;;;;5146508;27;20127;-66
2022/07/26 09:49:18;;;;;;;3.30;1.40;;;21.00;99.90;;;;;;5147820;27;20511;-66
2022/07/26 09:51:49;;;;;;;9.23;2.10;;;21.20;99.90;;;;;;5138083;27;20039;-66
2022/07/26 09:54:33;;;;;;;4.13;1.90;;;21.10;99.90;;;;;;5141064;27;20492;-66
2022/07/26 09:56:59;;;;;;;11.35;1.75;;;21.00;99.90;;;;;;5103238;28;20051;-66
2022/07/26 09:59:26;;;;;;;8.38;3.28;;;20.80;99.90;;;;;;5109083;27;20503;-66
2022/07/26 10:01:54;;;;;;;4.35;1.77;;;20.70;99.90;;;;;;5117726;27;20655;-66
2022/07/26 10:04:20;;;;;;;12.55;2.35;;;20.90;99.90;;;;;;5143238;27;20089;-66
2022/07/26 10:06:46;;;;;;;10.15;1.95;;;21.00;99.90;;;;;;5138601;27;20047;-66
2022/07/26 10:09:13;;;;;;;12.25;2.00;;;20.90;99.90;;;;;;5146690;27;20042;-67
2022/07/26 10:12:02;;;;;;;13.45;3.08;;;21.00;99.90;;;;;;5145110;27;20095;-66
2022/07/26 10:14:36;;;;;;;6.45;2.42;;;21.00;99.90;;;;;;5131804;27;20043;-67
2022/07/26 10:17:26;;;;;;;9.13;2.72;;;20.90;99.90;;;;;;5146560;27;20031;-67
2022/07/26 10:19:54;;;;;;;3.47;1.88;;;20.70;99.90;;;;;;5147906;27;20046;-67
2022/07/26 10:22:49;;;;;;;6.72;1.98;;;20.60;99.90;;;;;;5148337;27;20042;-67
2022/07/26 10:25:17;;;;;;;13.90;2.70;;;20.30;99.90;;;;;;5136366;27;20460;-68
2022/07/26 10:27:46;;;;;;;8.98;2.78;;;20.20;99.90;;;;;;5141541;27;20126;-68
2022/07/26 10:30:17;;;;;;;12.50;3.17;;;20.30;99.90;;;;;;5131039;27;20088;-68
2022/07/26 10:33:05;;;;;;;9.40;3.35;;;20.30;99.90;;;;;;5139923;27;20039;-68
2022/07/26 10:35:35;;;;;;;;;;;20.40;99.90;;;;;;5142646;27;20038;-68
2022/07/26 10:38:05;;;;;;;12.43;3.15;;;20.50;99.90;;;;;;5144773;27;20114;-68
2022/07/26 10:40:32;;;;;;;6.32;2.28;;;20.60;99.90;;;;;;5147191;27;20034;-68
2022/07/26 10:43:12;;;;;;;9.45;3.10;;;20.60;99.90;;;;;;5148733;27;20034;-68
2022/07/26 10:45:38;;;;;;;9.75;2.45;;;20.50;99.90;;;;;;5151958;27;20765;-68
2022/07/26 10:48:17;;;;;;;6.28;2.58;;;20.40;99.90;;;;;;5146075;27;20075;-68
2022/07/26 10:50:45;;;;;;;18.77;3.75;;;20.40;99.90;;;;;;5131358;27;20126;-68
2022/07/26 10:53:23;;;;;;;13.45;4.32;;;20.30;99.90;;;;;;5152972;27;20414;-68
2022/07/26 10:55:48;;;;;;;7.93;3.58;;;20.40;99.90;;;;;;5148829;27;20464;-68
2022/07/26 10:58:14;;;;;;;14.90;4.10;;;20.40;99.90;;;;;;5152552;27;20078;-68
2022/07/26 11:00:40;;;;;;;18.92;5.03;;;20.30;99.90;;;;;;5152139;27;20549;-68
2022/07/26 11:03:06;;;;;;;11.73;3.05;;;20.30;99.90;;;;;;5150840;27;20049;-68
2022/07/26 11:05:33;;;;;;;14.73;3.75;;;20.10;99.90;;;;;;5146002;27;20125;-68
2022/07/26 11:08:07;;;;;;;11.40;4.32;;;20.00;99.90;;;;;;5144229;27;20046;-68
2022/07/26 11:10:53;;;;;;;18.08;4.13;;;19.90;99.90;;;;;;5141567;27;20043;-68
2022/07/26 11:13:24;;;;;;;14.13;3.80;;;19.80;99.90;;;;;;5138780;27;20051;-69
2022/07/26 11:16:03;;;;;;;10.77;3.88;;;19.90;99.90;;;;;;5130817;27;20078;-69
2022/07/26 11:18:31;;;;;;;9.82;3.60;;;19.90;99.90;;;;;;5147398;27;20082;-69
2022/07/26 11:21:17;;;;;;;12.43;3.47;;;19.80;99.90;;;;;;5127466;27;20477;-69
2022/07/26 11:23:45;;;;;;;8.60;3.42;;;20.00;99.90;;;;;;5136377;27;20047;-69
2022/07/26 11:26:24;;;;;;;14.32;4.07;;;20.20;99.90;;;;;;5127437;27;20046;-69
2022/07/26 11:28:57;;;;;;;17.50;3.67;;;20.10;99.90;;;;;;5125626;27;20039;-69
2022/07/26 11:31:42;;;;;;;13.00;3.55;;;20.10;99.90;;;;;;5123704;27;20047;-69
2022/07/26 11:34:16;;;;;;;13.20;3.85;;;20.10;99.90;;;;;;5145184;27;20057;-69
2022/07/26 11:36:44;;;;;;;9.02;2.83;;;20.10;99.90;;;;;;5128978;27;20103;-69
2022/07/26 11:39:14;;;;;;;;;;;20.10;99.90;;;;;;5118880;27;20179;-70
2022/07/26 11:41:42;;;;;;;18.65;3.80;;;20.00;99.90;;;;;;5119230;27;20080;-69
2022/07/26 11:44:16;;;;;;;6.22;2.45;;;20.10;99.90;;;;;;5138429;27;20046;-72
2022/07/26 11:46:46;;;;;;;8.15;2.58;;;20.30;99.90;;;;;;5128120;27;20047;-71
2022/07/26 11:49:27;;;;;;;10.50;2.83;;;20.40;99.90;;;;;;5132398;27;20050;-71
2022/07/26 11:52:00;;;;;;;10.93;2.97;;;20.50;99.90;;;;;;5126979;27;20047;-71
2022/07/26 11:54:50;;;;;;;8.80;3.40;;;20.70;99.90;;;;;;5145304;27;20043;-71
2022/07/26 11:57:17;;;;;;;6.75;2.28;;;20.80;99.90;;;;;;5140690;27;20042;-71
2022/07/26 11:59:45;;;;;;;7.97;2.30;;;20.70;99.90;;;;;;5122020;27;20536;-71
2022/07/26 12:02:12;;;;;;;8.90;3.08;;;20.70;99.90;;;;;;5151282;27;20069;-71
2022/07/26 12:04:39;;;;;;;5.97;2.42;;;20.70;99.90;;;;;;5149412;27;20069;-70
2022/07/26 12:07:13;;;;;;;4.95;2.50;;;20.70;99.90;;;;;;5125127;27;20106;-71
2022/07/26 12:09:42;;;;;;;14.45;3.25;;;20.70;99.90;;;;;;5132404;27;20047;-71
2022/07/26 12:12:19;;;;;;;9.98;2.13;;;20.60;99.90;;;;;;5125320;27;20051;-71
2022/07/26 12:14:55;;;;;;;7.57;2.88;;;20.70;99.90;;;;;;5141056;27;20047;-71
2022/07/26 12:17:21;;;;;;;9.30;2.88;;;20.70;99.90;;;;;;5120397;27;20122;-71
2022/07/26 12:19:46;;;;;;;9.30;2.65;;;20.70;99.90;;;;;;5132603;27;20122;-71
2022/07/26 12:22:15;;;;;;;8.32;2.88;;;20.70;99.90;;;;;;5130785;27;20091;-71
2022/07/26 12:24:50;;;;;;;11.43;2.40;;;20.80;99.90;;;;;;5125794;27;20043;-71
2022/07/26 12:27:28;;;;;;;8.20;2.90;;;21.00;99.90;;;;;;5118190;27;20039;-70
2022/07/26 12:30:12;;;;;;;7.88;2.20;;;21.10;99.90;;;;;;5131869;27;20499;-71
2022/07/26 12:32:40;;;;;;;8.40;2.03;;;21.20;99.90;;;;;;5147730;27;20039;-71
2022/07/26 12:35:15;;;;;;;8.27;3.08;;;21.40;99.90;;;;;;5129478;27;20054;-70
2022/07/26 12:37:44;;;;;;;6.30;2.30;;;21.50;99.90;;;;;;5131608;27;20599;-70
2022/07/26 12:40:16;;;;;;;3.42;2.08;;;21.40;97.10;;;;;;5125467;27;20050;-70
2022/07/26 12:42:49;;;;;;;3.30;1.30;;;21.20;99.90;;;;;;5121039;27;20077;-70
2022/07/26 12:45:36;;;;;;;4.35;1.77;;;21.10;99.90;;;;;;5122620;27;21024;-69
2022/07/26 12:48:09;;;;;;;9.85;2.28;;;21.10;98.90;;;;;;5130324;27;20047;-69
2022/07/26 12:50:34;;;;;;;9.98;2.35;;;21.10;99.60;;;;;;5131285;27;20039;-69
2022/07/26 12:53:06;;;;;;;9.48;2.05;;;21.20;99.90;;;;;;5115348;27;20091;-70